Time;durP1;ratioP1;P1;durP2;ratioP2;P2;SDS_P1;SDS_P2;PMS_P1;PMS_P2;Temp;Humidity;BMP_temperature;BMP_pressure;BME280_temperature;BME280_humidity;BME280_pressure;Samples;Min_cycle;Max_cycle;Signal;HPM_P1;HPM_P2
2023/12/12 00:01:16;;;;;;;1.75;0.77;;;8.70;99.90;;;;;;5001964;28;20115;-78
2023/12/12 00:03:43;;;;;;;1.75;0.70;;;8.80;99.90;;;;;;5006093;28;20045;-78
2023/12/12 00:06:10;;;;;;;1.13;0.80;;;8.90;99.90;;;;;;5021212;28;20653;-78
2023/12/12 00:08:37;;;;;;;1.77;0.88;;;9.00;99.90;;;;;;5019339;28;20130;-78
2023/12/12 00:11:05;;;;;;;1.55;0.85;;;9.10;99.90;;;;;;5009475;28;20049;-78
2023/12/12 00:13:32;;;;;;;1.92;0.82;;;9.10;99.90;;;;;;5020113;28;20057;-78
2023/12/12 00:15:59;;;;;;;1.38;0.70;;;9.20;1.00;;;;;;5016371;28;20042;-78
2023/12/12 00:18:26;;;;;;;0.70;0.68;;;9.20;1.00;;;;;;5021087;28;20099;-78
2023/12/12 00:20:53;;;;;;;1.48;0.73;;;9.20;1.00;;;;;;5019008;28;20940;-78
2023/12/12 00:23:20;;;;;;;1.08;0.70;;;9.30;1.00;;;;;;5017268;28;20057;-78
2023/12/12 00:25:48;;;;;;;2.17;0.70;;;9.30;1.00;;;;;;5015326;28;20049;-78
2023/12/12 00:28:14;;;;;;;2.30;0.80;;;9.30;1.00;;;;;;5015913;28;20541;-78
2023/12/12 00:30:42;;;;;;;0.80;0.60;;;9.40;1.00;;;;;;5017119;28;20053;-78
2023/12/12 00:33:08;;;;;;;1.50;0.90;;;9.40;1.00;;;;;;5034360;28;20053;-78
2023/12/12 00:35:35;;;;;;;0.90;0.70;;;9.40;1.00;;;;;;5020635;28;20041;-78
2023/12/12 00:38:02;;;;;;;1.90;0.77;;;9.40;1.00;;;;;;5013603;28;20065;-78
2023/12/12 00:40:29;;;;;;;2.15;0.70;;;9.40;1.00;;;;;;5000471;28;20061;-79
2023/12/12 00:42:56;;;;;;;1.08;0.55;;;9.40;1.00;;;;;;5019225;28;20394;-78
2023/12/12 00:45:23;;;;;;;2.33;0.95;;;9.50;1.00;;;;;;5018539;28;20049;-78
2023/12/12 00:47:50;;;;;;;1.17;0.80;;;9.50;1.00;;;;;;5014901;28;20060;-79
2023/12/12 00:50:17;;;;;;;1.52;0.90;;;9.60;1.00;;;;;;5017315;28;20053;-80
2023/12/12 00:52:44;;;;;;;1.50;0.90;;;9.60;1.00;;;;;;5031575;28;20050;-78
2023/12/12 00:55:11;;;;;;;1.08;0.70;;;9.60;1.00;;;;;;5017454;28;20055;-78
2023/12/12 00:57:38;;;;;;;1.05;0.95;;;9.70;1.00;;;;;;5019864;28;20045;-78
2023/12/12 01:00:05;;;;;;;2.03;0.95;;;9.70;1.00;;;;;;5002124;28;20049;-79
2023/12/12 01:02:32;;;;;;;1.77;0.80;;;9.70;1.00;;;;;;5019227;28;20164;-78
2023/12/12 01:04:59;;;;;;;1.30;0.60;;;9.70;1.00;;;;;;5000219;28;20048;-79
2023/12/12 01:07:26;;;;;;;0.90;0.70;;;9.80;1.00;;;;;;5019718;28;20061;-79
2023/12/12 01:09:53;;;;;;;1.42;0.80;;;9.80;1.00;;;;;;5001165;28;20375;-78
2023/12/12 01:12:20;;;;;;;1.17;0.52;;;9.80;1.00;;;;;;5001796;28;20142;-78
2023/12/12 01:14:47;;;;;;;0.95;0.60;;;9.90;1.00;;;;;;5009022;28;20115;-78
2023/12/12 01:17:14;;;;;;;1.00;0.68;;;9.90;1.00;;;;;;5014484;28;20057;-78
2023/12/12 01:19:41;;;;;;;1.23;0.70;;;9.90;1.00;;;;;;5014274;28;20046;-78
2023/12/12 01:22:08;;;;;;;0.95;0.60;;;9.90;1.00;;;;;;5023062;28;20049;-78
2023/12/12 01:24:35;;;;;;;1.42;0.40;;;9.90;1.00;;;;;;5017544;28;20111;-79
2023/12/12 01:27:02;;;;;;;0.85;0.65;;;10.00;1.00;;;;;;5015535;28;20196;-79
2023/12/12 01:29:29;;;;;;;0.70;0.70;;;10.00;1.00;;;;;;4998153;28;20529;-78
2023/12/12 01:31:56;;;;;;;0.70;0.60;;;10.00;99.90;;;;;;5002668;28;20115;-78
2023/12/12 01:34:23;;;;;;;0.77;0.60;;;10.00;1.00;;;;;;5020778;28;20172;-78
2023/12/12 01:36:50;;;;;;;0.95;0.60;;;10.00;1.00;;;;;;5018809;28;20053;-78
2023/12/12 01:39:17;;;;;;;1.02;0.82;;;10.10;99.90;;;;;;5013539;28;20128;-78
2023/12/12 01:41:48;;;;;;;1.13;0.75;;;10.00;99.90;;;;;;5015623;28;20072;-78
2023/12/12 01:44:15;;;;;;;2.45;1.00;;;10.00;99.90;;;;;;5014181;28;20111;-78
2023/12/12 01:46:45;;;;;;;1.38;0.90;;;10.00;99.90;;;;;;5002695;28;20088;-78
2023/12/12 01:49:12;;;;;;;1.25;0.70;;;10.00;99.90;;;;;;5009462;28;20165;-78
2023/12/12 01:51:39;;;;;;;1.27;0.60;;;10.10;99.90;;;;;;5001043;28;20670;-79
2023/12/12 01:54:06;;;;;;;1.42;0.90;;;10.10;99.90;;;;;;5028268;28;20148;-79
2023/12/12 01:56:33;;;;;;;1.35;0.90;;;10.10;99.90;;;;;;5017341;28;20045;-79
2023/12/12 01:59:01;;;;;;;1.60;0.60;;;10.10;99.90;;;;;;5017901;28;20051;-78
2023/12/12 02:01:28;;;;;;;0.95;0.60;;;10.20;99.90;;;;;;5020235;28;20057;-78
2023/12/12 02:03:55;;;;;;;0.73;0.50;;;10.20;99.90;;;;;;5018538;28;20069;-79
2023/12/12 02:06:23;;;;;;;0.95;0.50;;;10.20;99.90;;;;;;5017060;28;20073;-79
2023/12/12 02:08:51;;;;;;;1.00;0.55;;;10.20;99.90;;;;;;5017640;28;20077;-78
2023/12/12 02:11:18;;;;;;;0.45;0.30;;;10.20;94.60;;;;;;5018479;28;20091;-78
2023/12/12 02:13:45;;;;;;;1.10;0.57;;;10.20;79.40;;;;;;5016794;28;20050;-79
2023/12/12 02:16:13;;;;;;;0.68;0.43;;;10.20;99.90;;;;;;5015624;28;20076;-78
2023/12/12 02:18:40;;;;;;;0.93;0.50;;;10.20;99.90;;;;;;4999391;28;20168;-78
2023/12/12 02:21:08;;;;;;;0.45;0.43;;;10.20;99.90;;;;;;4998291;28;20467;-78
2023/12/12 02:23:35;;;;;;;1.25;0.50;;;10.30;99.90;;;;;;5018627;28;20053;-78
2023/12/12 02:26:02;;;;;;;1.42;0.65;;;10.30;99.90;;;;;;5004131;28;20049;-78
2023/12/12 02:28:29;;;;;;;0.70;0.50;;;10.30;99.90;;;;;;5020890;28;20513;-79
2023/12/12 02:33:38;;;;;;;0.70;0.40;;;10.30;99.90;;;;;;999574;22;21496;-76
2023/12/12 02:36:05;;;;;;;0.98;0.60;;;10.30;99.90;;;;;;5035877;28;20260;-77
2023/12/12 02:38:32;;;;;;;0.68;0.52;;;10.30;99.90;;;;;;5004819;28;20129;-77
2023/12/12 02:40:59;;;;;;;1.08;0.60;;;10.30;99.90;;;;;;5013984;28;20420;-77
2023/12/12 02:43:27;;;;;;;1.00;0.52;;;10.30;99.90;;;;;;4989088;28;20508;-77
2023/12/12 02:45:54;;;;;;;0.85;0.50;;;10.30;99.90;;;;;;4995575;28;20038;-77
2023/12/12 02:48:21;;;;;;;0.68;0.50;;;10.30;99.90;;;;;;5011242;28;20626;-77
2023/12/12 02:50:48;;;;;;;0.90;0.70;;;10.30;99.90;;;;;;5020426;28;20050;-77
2023/12/12 02:53:15;;;;;;;1.33;0.50;;;10.30;99.90;;;;;;5013578;28;20386;-77
2023/12/12 02:55:42;;;;;;;0.77;0.40;;;10.30;99.90;;;;;;5004066;28;20057;-77
2023/12/12 02:58:09;;;;;;;0.80;0.50;;;10.30;99.90;;;;;;5018210;28;20056;-77
2023/12/12 03:00:36;;;;;;;1.10;0.57;;;10.30;99.90;;;;;;5023002;28;20080;-78
2023/12/12 03:03:03;;;;;;;0.93;0.70;;;10.30;99.90;;;;;;5017037;28;20057;-77
2023/12/12 03:05:31;;;;;;;0.82;0.55;;;10.30;99.90;;;;;;5031457;28;20052;-77
2023/12/12 03:07:58;;;;;;;1.75;0.70;;;10.30;99.90;;;;;;5019339;28;20050;-77
2023/12/12 03:10:25;;;;;;;1.23;0.90;;;10.20;99.90;;;;;;5013254;28;20042;-78
2023/12/12 03:12:52;;;;;;;0.77;0.30;;;10.20;99.90;;;;;;5026135;28;20061;-77
2023/12/12 03:15:19;;;;;;;0.50;0.50;;;10.10;99.90;;;;;;5006865;28;20062;-77
2023/12/12 03:17:45;;;;;;;1.15;0.90;;;10.10;99.90;;;;;;5028563;28;20073;-77
2023/12/12 03:20:13;;;;;;;0.93;0.70;;;10.10;99.90;;;;;;5018266;28;20608;-77
2023/12/12 03:22:39;;;;;;;0.38;0.38;;;10.10;99.90;;;;;;5015783;28;20132;-77
2023/12/12 03:25:07;;;;;;;0.50;0.45;;;10.10;99.90;;;;;;5024230;28;20065;-77
2023/12/12 03:27:35;;;;;;;1.20;0.90;;;10.10;99.90;;;;;;5021970;28;20045;-77
2023/12/12 03:30:02;;;;;;;1.15;0.82;;;10.10;99.90;;;;;;5024766;28;20053;-77
2023/12/12 03:32:29;;;;;;;0.95;0.60;;;10.20;99.90;;;;;;5023457;28;20050;-78
2023/12/12 03:34:56;;;;;;;0.50;0.50;;;10.20;99.90;;;;;;5015219;28;20057;-77
2023/12/12 03:37:23;;;;;;;0.98;0.77;;;10.20;99.90;;;;;;5015664;28;20045;-78
2023/12/12 03:39:51;;;;;;;0.68;0.47;;;10.30;99.90;;;;;;5005909;28;20104;-78
2023/12/12 03:42:18;;;;;;;0.98;0.90;;;10.30;99.90;;;;;;5013141;28;20056;-76
2023/12/12 03:44:44;;;;;;;0.68;0.47;;;10.40;99.90;;;;;;5012355;28;20111;-76
2023/12/12 03:47:12;;;;;;;0.50;0.50;;;10.40;99.90;;;;;;5022460;28;20057;-76
2023/12/12 03:49:38;;;;;;;0.85;0.55;;;10.40;99.90;;;;;;5024159;28;20342;-76
2023/12/12 03:52:06;;;;;;;0.80;0.60;;;10.40;99.90;;;;;;5017469;28;20129;-76
2023/12/12 03:54:33;;;;;;;1.08;0.60;;;10.50;99.90;;;;;;5022141;28;20049;-77
2023/12/12 03:57:00;;;;;;;3.10;1.10;;;10.50;99.90;;;;;;5022742;28;20136;-76
2023/12/12 03:59:26;;;;;;;0.55;0.45;;;10.50;99.90;;;;;;5024332;28;20412;-76
2023/12/12 04:01:53;;;;;;;1.05;0.45;;;10.50;99.90;;;;;;5006146;28;20081;-76
2023/12/12 04:04:20;;;;;;;0.85;0.50;;;10.60;99.90;;;;;;5001777;28;20906;-76
2023/12/12 04:06:47;;;;;;;0.77;0.60;;;10.60;99.90;;;;;;5007701;28;20141;-77
2023/12/12 04:09:15;;;;;;;0.70;0.45;;;10.60;99.90;;;;;;5022087;28;20045;-76
2023/12/12 04:11:42;;;;;;;0.45;0.40;;;10.60;99.90;;;;;;5019857;28;20038;-76
2023/12/12 04:14:09;;;;;;;0.80;0.40;;;10.70;99.90;;;;;;5020983;28;20053;-76
2023/12/12 04:16:36;;;;;;;0.45;0.25;;;10.70;99.90;;;;;;5023816;28;20146;-77
2023/12/12 04:19:03;;;;;;;0.60;0.40;;;10.70;99.90;;;;;;5005275;28;20041;-77
2023/12/12 04:21:30;;;;;;;0.45;0.35;;;10.70;99.90;;;;;;5018645;28;20045;-77
2023/12/12 04:23:57;;;;;;;1.13;0.55;;;10.70;99.90;;;;;;5021198;28;20370;-77
2023/12/12 04:26:27;;;;;;;1.88;1.10;;;10.70;99.90;;;;;;5014204;28;20545;-77
2023/12/12 04:28:54;;;;;;;0.47;0.47;;;10.70;99.90;;;;;;4989443;28;20084;-77
2023/12/12 04:31:20;;;;;;;0.70;0.50;;;10.70;99.90;;;;;;5003573;28;20489;-77
2023/12/12 04:33:47;;;;;;;0.40;0.40;;;10.70;99.90;;;;;;5020730;28;20045;-77
2023/12/12 04:36:14;;;;;;;0.32;0.30;;;10.70;99.90;;;;;;5004438;28;20061;-77
2023/12/12 04:38:41;;;;;;;0.30;0.30;;;10.80;1.00;;;;;;5021203;28;20053;-77
2023/12/12 04:41:08;;;;;;;0.28;0.25;;;10.90;1.00;;;;;;5004744;28;20135;-77
2023/12/12 04:43:35;;;;;;;0.95;0.40;;;10.90;1.00;;;;;;5022308;28;20465;-77
2023/12/12 04:46:02;;;;;;;0.35;0.35;;;11.00;1.00;;;;;;5020194;28;20139;-75
2023/12/12 04:48:29;;;;;;;0.22;0.22;;;11.00;1.00;;;;;;5024694;28;20049;-75
2023/12/12 04:50:56;;;;;;;0.30;0.30;;;11.10;1.00;;;;;;5019769;28;20041;-76
2023/12/12 04:53:24;;;;;;;0.40;0.35;;;11.10;1.00;;;;;;5019735;28;20180;-76
2023/12/12 04:55:50;;;;;;;0.45;0.30;;;11.10;1.00;;;;;;5020678;28;20068;-75
2023/12/12 04:58:17;;;;;;;0.40;0.40;;;11.20;1.00;;;;;;5020232;28;20061;-75
2023/12/12 05:00:44;;;;;;;0.57;0.32;;;11.20;1.00;;;;;;5004881;28;20050;-76
2023/12/12 05:03:11;;;;;;;0.65;0.55;;;11.20;1.00;;;;;;5021233;28;20065;-75
2023/12/12 05:05:38;;;;;;;0.60;0.60;;;11.20;1.00;;;;;;5022373;28;20037;-75
2023/12/12 05:08:05;;;;;;;0.50;0.40;;;11.20;99.90;;;;;;5013703;28;20034;-76
2023/12/12 05:10:32;;;;;;;0.30;0.30;;;11.20;99.90;;;;;;5019907;28;20144;-75
2023/12/12 05:12:59;;;;;;;0.70;0.60;;;11.30;1.00;;;;;;5021906;28;20386;-75
2023/12/12 05:15:27;;;;;;;0.20;0.13;;;11.30;1.00;;;;;;5014531;28;20046;-77
2023/12/12 05:17:54;;;;;;;0.20;0.20;;;11.30;99.90;;;;;;5022809;28;20420;-76
2023/12/12 05:20:21;;;;;;;0.20;0.20;;;11.30;99.90;;;;;;5017475;28;20045;-76
2023/12/12 05:22:48;;;;;;;0.30;0.30;;;11.40;99.90;;;;;;5014748;28;20050;-75
2023/12/12 05:25:15;;;;;;;0.50;0.30;;;11.40;99.90;;;;;;5013101;28;20096;-75
2023/12/12 05:27:42;;;;;;;1.13;0.30;;;11.40;99.90;;;;;;5012119;28;20045;-73
2023/12/12 05:30:09;;;;;;;0.20;0.20;;;11.40;99.90;;;;;;5017478;28;20127;-74
2023/12/12 05:32:36;;;;;;;0.55;0.32;;;11.40;99.90;;;;;;5020368;28;20049;-74
2023/12/12 05:35:04;;;;;;;0.13;0.13;;;11.50;99.90;;;;;;5020888;28;20045;-74
2023/12/12 05:37:31;;;;;;;0.28;0.22;;;11.50;99.90;;;;;;5020440;28;20053;-74
2023/12/12 05:39:58;;;;;;;0.20;0.20;;;11.50;99.90;;;;;;5019301;28;20129;-75
2023/12/12 05:42:26;;;;;;;0.38;0.10;;;11.50;99.90;;;;;;5019805;28;20053;-75
2023/12/12 05:44:52;;;;;;;0.50;0.30;;;11.50;99.90;;;;;;5013079;28;20077;-75
2023/12/12 05:47:19;;;;;;;0.43;0.43;;;11.50;99.90;;;;;;5020149;28;20053;-75
2023/12/12 05:49:46;;;;;;;0.40;0.38;;;11.60;99.90;;;;;;5002946;28;20057;-75
2023/12/12 05:52:14;;;;;;;0.47;0.20;;;11.60;99.90;;;;;;5014153;28;20053;-75
2023/12/12 05:54:42;;;;;;;0.30;0.30;;;11.60;99.90;;;;;;5016752;28;20073;-76
2023/12/12 05:57:09;;;;;;;0.20;0.20;;;11.60;99.90;;;;;;5026491;28;20156;-76
2023/12/12 05:59:36;;;;;;;0.30;0.22;;;11.60;99.90;;;;;;5019215;28;20051;-76
2023/12/12 06:02:04;;;;;;;1.45;0.22;;;11.60;99.90;;;;;;5014552;28;20156;-76
2023/12/12 06:04:31;;;;;;;0.17;0.17;;;11.60;99.90;;;;;;5017111;28;20060;-76
2023/12/12 06:06:58;;;;;;;0.52;0.30;;;11.70;99.90;;;;;;5012143;28;20184;-75
2023/12/12 06:09:24;;;;;;;0.45;0.40;;;11.70;99.90;;;;;;5014236;28;20120;-74
2023/12/12 06:11:51;;;;;;;0.52;0.40;;;11.70;99.90;;;;;;5011048;28;20111;-74
2023/12/12 06:14:18;;;;;;;0.30;0.30;;;11.70;99.90;;;;;;5017004;28;20186;-74
2023/12/12 06:16:45;;;;;;;0.52;0.20;;;11.60;99.90;;;;;;5016890;28;20042;-75
2023/12/12 06:19:12;;;;;;;2.22;0.38;;;11.40;99.90;;;;;;5016990;28;20077;-74
2023/12/12 06:21:39;;;;;;;0.30;0.20;;;11.30;99.90;;;;;;5012928;28;20421;-75
2023/12/12 06:24:07;;;;;;;0.40;0.30;;;11.30;1.00;;;;;;5004434;28;20078;-75
2023/12/12 06:26:34;;;;;;;0.22;0.20;;;11.20;1.00;;;;;;5011016;28;20061;-75
2023/12/12 06:29:02;;;;;;;0.30;0.30;;;11.20;1.00;;;;;;5011558;28;20058;-75
2023/12/12 06:31:29;;;;;;;0.20;0.20;;;11.20;1.00;;;;;;5009813;28;20385;-74
2023/12/12 06:33:56;;;;;;;0.10;0.10;;;11.00;99.90;;;;;;5011945;28;20050;-73
2023/12/12 06:36:24;;;;;;;0.15;0.10;;;11.00;99.90;;;;;;5014161;28;20129;-73
2023/12/12 06:38:51;;;;;;;0.10;0.10;;;11.00;99.90;;;;;;5016656;28;20069;-73
2023/12/12 06:41:18;;;;;;;0.10;0.10;;;11.00;99.90;;;;;;5004734;28;20604;-74
2023/12/12 06:43:45;;;;;;;0.20;0.20;;;11.00;99.90;;;;;;4997708;28;20053;-74
2023/12/12 06:46:12;;;;;;;0.20;0.20;;;10.90;99.90;;;;;;5017217;28;20060;-75
2023/12/12 06:48:39;;;;;;;0.25;0.20;;;10.90;99.90;;;;;;5016009;28;20045;-75
2023/12/12 06:51:06;;;;;;;0.20;0.20;;;10.90;99.90;;;;;;5020961;28;20060;-74
2023/12/12 06:53:33;;;;;;;0.38;0.30;;;10.90;99.90;;;;;;5019496;28;20049;-76
2023/12/12 06:56:00;;;;;;;0.40;0.20;;;10.90;99.90;;;;;;5013660;28;20045;-73
2023/12/12 06:58:27;;;;;;;0.20;0.20;;;10.90;99.90;;;;;;5003626;28;20052;-73
2023/12/12 07:00:55;;;;;;;0.10;0.10;;;10.90;99.90;;;;;;5018513;28;20060;-73
2023/12/12 07:03:21;;;;;;;0.10;0.10;;;10.80;99.90;;;;;;4992901;28;20050;-75
2023/12/12 07:05:52;;;;;;;0.30;0.20;;;10.80;99.90;;;;;;5000793;28;20454;-75
2023/12/12 07:08:19;;;;;;;0.17;0.17;;;10.80;99.90;;;;;;4996444;28;20949;-75
2023/12/12 07:10:47;;;;;;;0.10;0.10;;;10.70;99.90;;;;;;5014932;28;20054;-74
2023/12/12 07:13:14;;;;;;;0.32;0.30;;;10.70;99.90;;;;;;5018582;28;20779;-76
2023/12/12 07:15:58;;;;;;;0.20;0.20;;;10.70;99.90;;;;;;5013625;28;20048;-73
2023/12/12 07:18:25;;;;;;;0.60;0.40;;;10.70;99.90;;;;;;5012901;28;20046;-74
2023/12/12 07:20:53;;;;;;;1.13;0.40;;;10.70;99.90;;;;;;5001562;28;20046;-74
2023/12/12 07:23:19;;;;;;;0.68;0.55;;;10.70;99.90;;;;;;5009931;28;20080;-74
2023/12/12 07:25:46;;;;;;;0.22;0.22;;;10.70;99.90;;;;;;5016662;28;20053;-74
2023/12/12 07:28:13;;;;;;;0.22;0.20;;;10.70;99.90;;;;;;5016076;28;20052;-74
2023/12/12 07:30:41;;;;;;;0.30;0.30;;;10.70;99.90;;;;;;5016082;28;20226;-74
2023/12/12 07:33:08;;;;;;;0.40;0.40;;;10.70;99.90;;;;;;5011169;28;20053;-80
2023/12/12 07:35:35;;;;;;;0.20;0.20;;;10.70;99.90;;;;;;4999194;28;20077;-79
2023/12/12 07:38:02;;;;;;;0.30;0.30;;;10.70;99.90;;;;;;5015688;28;20049;-77
2023/12/12 07:40:30;;;;;;;0.90;0.30;;;10.70;99.90;;;;;;4995859;28;20049;-77
2023/12/12 07:43:00;;;;;;;0.40;0.40;;;10.70;99.90;;;;;;5015154;28;20104;-77
2023/12/12 07:45:26;;;;;;;0.68;0.20;;;10.70;99.90;;;;;;4999035;28;20110;-77
2023/12/12 07:47:53;;;;;;;0.50;0.40;;;10.70;99.90;;;;;;5017898;28;20041;-77
2023/12/12 07:50:21;;;;;;;0.25;0.25;;;10.70;99.90;;;;;;4984006;28;20143;-77
2023/12/12 07:52:48;;;;;;;0.30;0.30;;;10.70;99.90;;;;;;5010451;28;20169;-76
2023/12/12 07:55:15;;;;;;;0.30;0.30;;;10.70;99.90;;;;;;5017434;28;20079;-76
2023/12/12 07:57:42;;;;;;;0.50;0.40;;;10.80;99.90;;;;;;5018136;28;20081;-76
2023/12/12 08:00:10;;;;;;;0.32;0.32;;;10.80;99.90;;;;;;5015433;28;20052;-77
2023/12/12 08:02:37;;;;;;;0.30;0.30;;;10.80;99.90;;;;;;5013148;28;20100;-77
2023/12/12 08:05:06;;;;;;;0.35;0.20;;;10.90;99.90;;;;;;5017979;28;20121;-77
2023/12/12 08:07:33;;;;;;;0.25;0.20;;;10.90;99.90;;;;;;5000473;28;20146;-76
2023/12/12 08:10:00;;;;;;;0.20;0.20;;;10.90;99.90;;;;;;5018400;28;20081;-76
2023/12/12 08:12:27;;;;;;;0.30;0.30;;;10.90;99.90;;;;;;5017313;28;20053;-77
2023/12/12 08:14:55;;;;;;;0.20;0.20;;;10.90;99.90;;;;;;5017952;28;20412;-78
2023/12/12 08:17:22;;;;;;;0.40;0.40;;;10.90;99.90;;;;;;5017496;28;20364;-75
2023/12/12 08:19:49;;;;;;;0.35;0.15;;;10.90;99.90;;;;;;5015589;28;20126;-76
2023/12/12 08:22:16;;;;;;;0.30;0.20;;;10.90;99.90;;;;;;5014018;28;20042;-77
2023/12/12 08:24:45;;;;;;;0.17;0.17;;;10.80;99.90;;;;;;5012476;28;20045;-74
2023/12/12 08:27:12;;;;;;;0.10;0.10;;;10.80;99.90;;;;;;5017540;28;20065;-75
2023/12/12 08:29:39;;;;;;;0.20;0.17;;;10.80;99.90;;;;;;5013119;28;20049;-75
2023/12/12 08:32:06;;;;;;;0.20;0.20;;;10.70;99.90;;;;;;4999356;28;20069;-75
2023/12/12 08:34:33;;;;;;;0.32;0.20;;;10.70;99.90;;;;;;5016845;28;20179;-76
2023/12/12 08:37:01;;;;;;;0.20;0.20;;;10.70;99.90;;;;;;5015969;28;20513;-76
2023/12/12 08:39:29;;;;;;;0.20;0.20;;;10.70;99.90;;;;;;5014002;28;20077;-76
2023/12/12 08:41:56;;;;;;;1.27;0.20;;;10.70;99.90;;;;;;5001289;28;20517;-76
2023/12/12 08:44:24;;;;;;;1.00;0.25;;;10.70;99.90;;;;;;5018642;28;20056;-76
2023/12/12 08:46:52;;;;;;;0.20;0.20;;;10.70;99.90;;;;;;5012489;28;20080;-75
2023/12/12 08:49:19;;;;;;;0.60;0.28;;;10.70;99.90;;;;;;5010713;28;20058;-75
2023/12/12 08:51:47;;;;;;;0.52;0.32;;;10.80;99.90;;;;;;5017973;28;20100;-75
2023/12/12 08:54:14;;;;;;;0.95;0.20;;;10.80;99.90;;;;;;5019072;28;20061;-76
2023/12/12 08:56:42;;;;;;;0.63;0.30;;;10.80;99.90;;;;;;5018762;28;20128;-75
2023/12/12 08:59:09;;;;;;;0.28;0.17;;;10.80;99.90;;;;;;5017729;28;20376;-73
2023/12/12 09:01:36;;;;;;;0.52;0.30;;;10.80;99.90;;;;;;5023274;28;20056;-75
2023/12/12 09:04:03;;;;;;;0.60;0.30;;;10.80;99.90;;;;;;5014050;28;20144;-74
2023/12/12 09:06:30;;;;;;;0.57;0.28;;;10.90;99.90;;;;;;5016963;28;20061;-75
2023/12/12 09:08:57;;;;;;;0.30;0.25;;;10.90;99.90;;;;;;5000946;28;20674;-75
2023/12/12 09:11:24;;;;;;;0.20;0.20;;;10.90;99.90;;;;;;5016169;28;20050;-75
2023/12/12 09:13:51;;;;;;;0.10;0.10;;;10.90;99.90;;;;;;5013787;28;20259;-75
2023/12/12 09:16:17;;;;;;;1.35;0.47;;;11.00;99.90;;;;;;5018829;28;20046;-75
2023/12/12 09:18:45;;;;;;;0.55;0.30;;;11.00;99.90;;;;;;4998862;28;20921;-75
2023/12/12 09:21:12;;;;;;;0.52;0.22;;;11.00;99.90;;;;;;5009108;28;20053;-75
2023/12/12 09:23:40;;;;;;;2.25;0.40;;;11.10;99.90;;;;;;4979151;28;20144;-75
2023/12/12 09:26:12;;;;;;;0.25;0.25;;;11.10;99.90;;;;;;4999773;28;20125;-75
2023/12/12 09:28:41;;;;;;;0.20;0.17;;;11.20;99.90;;;;;;5010314;28;20545;-75
2023/12/12 09:31:08;;;;;;;0.65;0.40;;;11.20;99.60;;;;;;5010523;28;20096;-75
2023/12/12 09:33:35;;;;;;;1.42;0.80;;;11.20;1.00;;;;;;5016132;28;20096;-75
2023/12/12 09:36:03;;;;;;;0.22;0.22;;;11.20;1.00;;;;;;5016497;28;20045;-77
2023/12/12 09:38:30;;;;;;;0.63;0.30;;;11.20;1.00;;;;;;4984436;28;20050;-77
2023/12/12 09:40:57;;;;;;;1.20;0.52;;;11.20;1.00;;;;;;5008508;28;20045;-78
2023/12/12 09:43:26;;;;;;;0.60;0.30;;;11.20;99.90;;;;;;5011434;28;20076;-78
2023/12/12 09:45:57;;;;;;;0.80;0.40;;;11.30;99.90;;;;;;5015745;28;20140;-77
2023/12/12 09:48:24;;;;;;;1.70;0.52;;;11.30;99.90;;;;;;5001813;28;20103;-77
2023/12/12 09:50:54;;;;;;;4.82;0.90;;;11.30;99.90;;;;;;4996153;28;20053;-78
2023/12/12 09:53:21;;;;;;;1.17;0.50;;;11.30;99.90;;;;;;5001699;28;20045;-77
2023/12/12 09:55:47;;;;;;;1.10;0.40;;;11.40;99.90;;;;;;5005603;28;20112;-77
2023/12/12 09:58:15;;;;;;;1.20;0.50;;;11.40;99.90;;;;;;4996955;28;20053;-77
2023/12/12 10:00:41;;;;;;;0.65;0.35;;;11.40;99.90;;;;;;5011758;28;20374;-77
2023/12/12 10:03:10;;;;;;;1.02;0.50;;;11.40;99.90;;;;;;5007478;28;20053;-78
2023/12/12 10:05:37;;;;;;;1.20;0.50;;;11.50;96.30;;;;;;5013685;28;20050;-79
2023/12/12 10:08:05;;;;;;;2.97;0.60;;;11.50;1.00;;;;;;4993144;28;20360;-78
2023/12/12 10:10:43;;;;;;;1.58;0.55;;;11.50;1.00;;;;;;4993921;28;20053;-78
2023/12/12 10:13:11;;;;;;;2.05;0.60;;;11.40;1.00;;;;;;5013188;28;20140;-79
2023/12/12 10:15:38;;;;;;;1.23;0.38;;;11.40;1.00;;;;;;5014228;28;20141;-78
2023/12/12 10:18:05;;;;;;;1.27;0.40;;;11.40;99.90;;;;;;5011699;28;20066;-75
2023/12/12 10:20:35;;;;;;;0.60;0.40;;;11.40;99.90;;;;;;5012909;28;20045;-76
2023/12/12 10:23:03;;;;;;;0.98;0.47;;;11.40;99.90;;;;;;4990387;28;20056;-75
2023/12/12 10:25:33;;;;;;;3.83;0.93;;;11.30;20.90;;;;;;5022060;28;20049;-75
2023/12/12 10:28:00;;;;;;;1.15;0.60;;;11.40;1.00;;;;;;5014886;28;20115;-76
2023/12/12 10:30:27;;;;;;;0.93;0.60;;;11.30;99.90;;;;;;4996074;28;20072;-75
2023/12/12 10:32:55;;;;;;;1.35;0.55;;;11.30;99.90;;;;;;4985363;28;20084;-75
2023/12/12 10:35:23;;;;;;;1.58;0.73;;;11.30;1.00;;;;;;5018160;28;20115;-75
2023/12/12 10:37:50;;;;;;;1.98;0.73;;;11.30;99.90;;;;;;5016807;28;20042;-75
2023/12/12 10:40:21;;;;;;;1.05;0.75;;;11.30;99.90;;;;;;5017977;28;20136;-75
2023/12/12 10:42:51;;;;;;;2.17;0.50;;;11.30;99.90;;;;;;5007205;28;20308;-75
2023/12/12 10:45:20;;;;;;;2.55;1.00;;;11.30;99.90;;;;;;4984508;28;21906;-75
2023/12/12 10:47:49;;;;;;;2.15;1.25;;;11.30;99.90;;;;;;4991079;28;20105;-75
2023/12/12 10:50:18;;;;;;;2.55;1.17;;;11.30;99.90;;;;;;4985594;28;20049;-75
2023/12/12 10:52:46;;;;;;;1.60;0.88;;;11.40;99.90;;;;;;5014987;28;20502;-76
2023/12/12 10:55:14;;;;;;;2.08;0.70;;;11.40;99.90;;;;;;5016440;28;20763;-75
2023/12/12 10:57:45;;;;;;;2.88;1.02;;;11.40;99.90;;;;;;5017651;28;20136;-75
2023/12/12 11:00:16;;;;;;;2.22;0.90;;;11.50;1.00;;;;;;5001207;28;20645;-76
2023/12/12 11:02:46;;;;;;;1.48;0.88;;;11.70;87.60;;;;;;5015842;28;20049;-76
2023/12/12 11:05:14;;;;;;;1.30;1.00;;;11.80;99.90;;;;;;5017819;28;20049;-75
2023/12/12 11:07:43;;;;;;;1.38;0.70;;;12.00;62.30;;;;;;5019148;28;20566;-75
2023/12/12 11:10:11;;;;;;;1.73;0.80;;;12.10;99.90;;;;;;5005617;28;20050;-77
2023/12/12 11:12:58;;;;;;;1.67;1.10;;;12.10;99.90;;;;;;5016234;28;20423;-76
2023/12/12 11:15:25;;;;;;;1.13;0.70;;;12.10;99.90;;;;;;5015430;28;20196;-76
2023/12/12 11:17:52;;;;;;;1.15;0.50;;;12.00;1.00;;;;;;5016980;28;20438;-76
2023/12/12 11:20:19;;;;;;;1.35;0.60;;;12.00;1.00;;;;;;5016517;28;20045;-75
2023/12/12 11:22:48;;;;;;;1.67;0.65;;;11.90;1.00;;;;;;5018539;28;20119;-76
2023/12/12 11:25:17;;;;;;;2.42;0.73;;;11.80;61.50;;;;;;5017214;28;20077;-76
2023/12/12 11:27:46;;;;;;;1.10;0.85;;;11.80;99.90;;;;;;5000435;28;20042;-76
2023/12/12 11:30:14;;;;;;;1.88;0.80;;;11.70;99.90;;;;;;5015452;28;20502;-75
2023/12/12 11:32:42;;;;;;;9.63;1.55;;;11.70;99.90;;;;;;5002358;28;20487;-73
2023/12/12 11:35:29;;;;;;;2.38;1.10;;;11.50;94.20;;;;;;5014540;28;20303;-76
2023/12/12 11:38:00;;;;;;;2.53;0.85;;;11.10;99.90;;;;;;5020961;28;20046;-74
2023/12/12 11:40:27;;;;;;;2.88;0.95;;;10.70;1.00;;;;;;5017036;28;20076;-75
2023/12/12 11:43:25;;;;;;;1.25;0.60;;;10.40;1.00;;;;;;5015294;28;20128;-74
2023/12/12 11:45:54;;;;;;;0.75;0.40;;;10.20;99.90;;;;;;5012373;28;20053;-73
2023/12/12 11:48:21;;;;;;;1.63;0.40;;;10.20;99.90;;;;;;5020279;28;20077;-73
2023/12/12 11:50:49;;;;;;;0.20;0.20;;;10.10;99.90;;;;;;5018045;28;20056;-74
2023/12/12 11:53:40;;;;;;;0.13;0.13;;;10.10;99.90;;;;;;5015187;28;20128;-74
2023/12/12 11:56:07;;;;;;;0.38;0.22;;;10.00;99.90;;;;;;5014068;28;20073;-73
2023/12/12 11:58:34;;;;;;;0.60;0.40;;;10.00;99.90;;;;;;5015426;28;20057;-73
2023/12/12 12:01:01;;;;;;;0.70;0.40;;;9.90;99.90;;;;;;5014913;28;20042;-74
2023/12/12 12:03:28;;;;;;;0.20;0.20;;;9.90;99.90;;;;;;5011678;28;20059;-75
2023/12/12 12:05:55;;;;;;;0.50;0.25;;;9.90;99.90;;;;;;5016138;28;20056;-75
2023/12/12 12:08:22;;;;;;;0.68;0.30;;;9.90;99.90;;;;;;5016498;28;20454;-75
2023/12/12 12:10:58;;;;;;;0.50;0.40;;;9.90;99.90;;;;;;5018999;28;20061;-74
2023/12/12 12:13:39;;;;;;;0.80;0.20;;;9.90;86.90;;;;;;5014565;28;20502;-75
2023/12/12 12:16:10;;;;;;;0.20;0.20;;;9.90;1.00;;;;;;5016324;28;20095;-74
2023/12/12 12:18:37;;;;;;;0.35;0.20;;;9.90;1.00;;;;;;5013066;28;20048;-75
2023/12/12 12:21:05;;;;;;;0.32;0.30;;;9.90;99.90;;;;;;5017872;28;20072;-75
2023/12/12 12:23:32;;;;;;;0.77;0.30;;;9.80;1.00;;;;;;4996246;28;20522;-75
2023/12/12 12:25:59;;;;;;;0.85;0.30;;;9.80;3.90;;;;;;5016963;28;20562;-75
2023/12/12 12:28:31;;;;;;;0.22;0.10;;;9.80;99.90;;;;;;4999886;28;20045;-75
2023/12/12 12:30:58;;;;;;;0.55;0.30;;;9.70;99.90;;;;;;5017645;28;20057;-75
2023/12/12 12:33:32;;;;;;;0.95;0.20;;;9.70;99.90;;;;;;5014745;28;20419;-74
2023/12/12 12:35:59;;;;;;;0.60;0.30;;;9.70;1.00;;;;;;4999457;28;20050;-74
2023/12/12 12:38:29;;;;;;;1.27;0.22;;;9.70;99.90;;;;;;5017844;28;20041;-75
2023/12/12 12:40:56;;;;;;;0.38;0.30;;;9.70;99.90;;;;;;5019034;28;20041;-75
2023/12/12 12:43:22;;;;;;;0.22;0.22;;;9.70;99.90;;;;;;5017179;28;20061;-75
2023/12/12 12:45:50;;;;;;;0.40;0.40;;;9.80;99.90;;;;;;5017238;28;20725;-75
2023/12/12 12:48:17;;;;;;;0.22;0.20;;;9.80;99.90;;;;;;5019404;28;20057;-75
2023/12/12 12:50:48;;;;;;;0.20;0.20;;;9.80;99.90;;;;;;5002947;28;20051;-75
2023/12/12 12:53:15;;;;;;;0.47;0.30;;;9.80;99.90;;;;;;5017106;28;20128;-75
2023/12/12 12:55:42;;;;;;;0.47;0.30;;;9.80;99.90;;;;;;5015367;28;20057;-74